sensor_id;sensor_type;location;lat;lon;timestamp;P1;durP1;ratioP1;P2;durP2;ratioP2
84431;SDS011;74658;51.736;7.038;2024-02-23T00:03:17;2.70;;;0.70;;
84431;SDS011;74658;51.736;7.038;2024-02-23T00:08:18;2.80;;;0.80;;
84431;SDS011;74658;51.736;7.038;2024-02-23T00:13:19;3.00;;;0.80;;
84431;SDS011;74658;51.736;7.038;2024-02-23T00:18:19;3.20;;;0.90;;
84431;SDS011;74658;51.736;7.038;2024-02-23T00:23:19;2.70;;;1.00;;
84431;SDS011;74658;51.736;7.038;2024-02-23T00:28:20;2.70;;;0.80;;
84431;SDS011;74658;51.736;7.038;2024-02-23T00:33:21;2.70;;;1.00;;
84431;SDS011;74658;51.736;7.038;2024-02-23T00:38:21;3.30;;;1.20;;
84431;SDS011;74658;51.736;7.038;2024-02-23T00:43:22;4.10;;;1.30;;
84431;SDS011;74658;51.736;7.038;2024-02-23T00:48:23;3.40;;;1.30;;
84431;SDS011;74658;51.736;7.038;2024-02-23T00:53:23;3.90;;;1.40;;
84431;SDS011;74658;51.736;7.038;2024-02-23T00:58:24;4.80;;;1.30;;
84431;SDS011;74658;51.736;7.038;2024-02-23T01:03:24;4.20;;;1.30;;
84431;SDS011;74658;51.736;7.038;2024-02-23T01:08:25;3.20;;;1.10;;
84431;SDS011;74658;51.736;7.038;2024-02-23T01:13:25;3.50;;;1.20;;
84431;SDS011;74658;51.736;7.038;2024-02-23T01:18:26;3.70;;;1.60;;
84431;SDS011;74658;51.736;7.038;2024-02-23T01:23:27;4.60;;;1.90;;
84431;SDS011;74658;51.736;7.038;2024-02-23T01:28:27;5.40;;;2.50;;
84431;SDS011;74658;51.736;7.038;2024-02-23T01:33:28;6.20;;;2.40;;
84431;SDS011;74658;51.736;7.038;2024-02-23T01:38:28;7.40;;;3.00;;
84431;SDS011;74658;51.736;7.038;2024-02-23T01:43:29;5.80;;;3.10;;
84431;SDS011;74658;51.736;7.038;2024-02-23T01:48:30;6.80;;;2.80;;
84431;SDS011;74658;51.736;7.038;2024-02-23T01:53:30;6.70;;;3.20;;
84431;SDS011;74658;51.736;7.038;2024-02-23T01:58:31;6.80;;;2.80;;
84431;SDS011;74658;51.736;7.038;2024-02-23T02:03:32;4.80;;;2.10;;
84431;SDS011;74658;51.736;7.038;2024-02-23T02:08:33;6.10;;;2.00;;
84431;SDS011;74658;51.736;7.038;2024-02-23T02:13:33;4.70;;;1.80;;
84431;SDS011;74658;51.736;7.038;2024-02-23T02:18:33;5.50;;;1.80;;
84431;SDS011;74658;51.736;7.038;2024-02-23T02:23:34;7.00;;;1.80;;
84431;SDS011;74658;51.736;7.038;2024-02-23T02:28:35;7.10;;;1.60;;
84431;SDS011;74658;51.736;7.038;2024-02-23T02:33:35;6.90;;;2.10;;
84431;SDS011;74658;51.736;7.038;2024-02-23T02:38:36;4.80;;;1.40;;
84431;SDS011;74658;51.736;7.038;2024-02-23T02:43:36;6.10;;;1.40;;
84431;SDS011;74658;51.736;7.038;2024-02-23T02:48:37;5.10;;;1.40;;
84431;SDS011;74658;51.736;7.038;2024-02-23T02:53:38;8.00;;;1.60;;
84431;SDS011;74658;51.736;7.038;2024-02-23T02:58:38;5.00;;;1.60;;
84431;SDS011;74658;51.736;7.038;2024-02-23T03:03:39;10.90;;;2.70;;
84431;SDS011;74658;51.736;7.038;2024-02-23T03:08:41;6.30;;;1.60;;
84431;SDS011;74658;51.736;7.038;2024-02-23T03:13:40;4.90;;;1.40;;
84431;SDS011;74658;51.736;7.038;2024-02-23T03:18:42;5.30;;;1.50;;
84431;SDS011;74658;51.736;7.038;2024-02-23T03:23:41;7.20;;;1.50;;
84431;SDS011;74658;51.736;7.038;2024-02-23T03:28:42;5.60;;;1.70;;
84431;SDS011;74658;51.736;7.038;2024-02-23T03:33:43;7.20;;;1.90;;
84431;SDS011;74658;51.736;7.038;2024-02-23T03:38:43;8.10;;;1.80;;
84431;SDS011;74658;51.736;7.038;2024-02-23T03:43:44;6.10;;;1.20;;
84431;SDS011;74658;51.736;7.038;2024-02-23T03:48:44;4.60;;;1.30;;
84431;SDS011;74658;51.736;7.038;2024-02-23T03:53:45;7.00;;;1.40;;
84431;SDS011;74658;51.736;7.038;2024-02-23T03:58:46;6.00;;;1.70;;
84431;SDS011;74658;51.736;7.038;2024-02-23T04:03:46;7.90;;;1.60;;
84431;SDS011;74658;51.736;7.038;2024-02-23T04:08:47;6.50;;;1.40;;
84431;SDS011;74658;51.736;7.038;2024-02-23T04:13:47;5.80;;;1.50;;
84431;SDS011;74658;51.736;7.038;2024-02-23T04:18:48;5.90;;;1.80;;
84431;SDS011;74658;51.736;7.038;2024-02-23T04:23:49;6.10;;;1.30;;
84431;SDS011;74658;51.736;7.038;2024-02-23T04:28:49;5.00;;;1.70;;
84431;SDS011;74658;51.736;7.038;2024-02-23T04:33:50;7.90;;;1.70;;
84431;SDS011;74658;51.736;7.038;2024-02-23T04:38:50;5.40;;;1.70;;
84431;SDS011;74658;51.736;7.038;2024-02-23T04:43:51;7.60;;;1.90;;
84431;SDS011;74658;51.736;7.038;2024-02-23T04:48:52;14.10;;;1.90;;
84431;SDS011;74658;51.736;7.038;2024-02-23T04:53:52;5.10;;;1.30;;
84431;SDS011;74658;51.736;7.038;2024-02-23T04:58:53;5.80;;;1.30;;
84431;SDS011;74658;51.736;7.038;2024-02-23T05:03:53;5.20;;;1.50;;
84431;SDS011;74658;51.736;7.038;2024-02-23T05:08:54;6.90;;;1.50;;
84431;SDS011;74658;51.736;7.038;2024-02-23T05:13:55;6.50;;;1.60;;
84431;SDS011;74658;51.736;7.038;2024-02-23T05:18:56;7.20;;;1.50;;
84431;SDS011;74658;51.736;7.038;2024-02-23T05:23:56;5.00;;;1.60;;
84431;SDS011;74658;51.736;7.038;2024-02-23T05:28:57;8.70;;;1.70;;
84431;SDS011;74658;51.736;7.038;2024-02-23T05:33:57;6.60;;;1.60;;
84431;SDS011;74658;51.736;7.038;2024-02-23T05:38:58;9.60;;;1.30;;
84431;SDS011;74658;51.736;7.038;2024-02-23T05:43:58;5.70;;;1.30;;
84431;SDS011;74658;51.736;7.038;2024-02-23T05:48:59;5.70;;;1.20;;
84431;SDS011;74658;51.736;7.038;2024-02-23T05:53:59;6.50;;;1.30;;
84431;SDS011;74658;51.736;7.038;2024-02-23T05:59:00;7.40;;;1.50;;
84431;SDS011;74658;51.736;7.038;2024-02-23T06:04:01;6.90;;;1.70;;
84431;SDS011;74658;51.736;7.038;2024-02-23T06:09:02;5.90;;;1.30;;
84431;SDS011;74658;51.736;7.038;2024-02-23T06:14:02;7.10;;;1.80;;
84431;SDS011;74658;51.736;7.038;2024-02-23T06:19:02;6.00;;;1.50;;
84431;SDS011;74658;51.736;7.038;2024-02-23T06:24:03;10.50;;;1.60;;
84431;SDS011;74658;51.736;7.038;2024-02-23T06:29:04;6.00;;;1.60;;
84431;SDS011;74658;51.736;7.038;2024-02-23T06:34:04;8.70;;;1.70;;
84431;SDS011;74658;51.736;7.038;2024-02-23T06:39:05;6.30;;;1.60;;
84431;SDS011;74658;51.736;7.038;2024-02-23T06:44:05;5.60;;;1.30;;
84431;SDS011;74658;51.736;7.038;2024-02-23T06:49:06;5.60;;;1.60;;
84431;SDS011;74658;51.736;7.038;2024-02-23T06:54:07;7.80;;;1.40;;
84431;SDS011;74658;51.736;7.038;2024-02-23T06:59:07;8.50;;;1.60;;
84431;SDS011;74658;51.736;7.038;2024-02-23T07:04:08;7.30;;;1.50;;
84431;SDS011;74658;51.736;7.038;2024-02-23T07:09:08;9.30;;;1.60;;
84431;SDS011;74658;51.736;7.038;2024-02-23T07:14:09;6.50;;;1.70;;
84431;SDS011;74658;51.736;7.038;2024-02-23T07:19:10;10.50;;;1.60;;
84431;SDS011;74658;51.736;7.038;2024-02-23T07:24:10;7.90;;;1.50;;
84431;SDS011;74658;51.736;7.038;2024-02-23T07:29:11;6.10;;;1.20;;
84431;SDS011;74658;51.736;7.038;2024-02-23T07:34:11;7.70;;;1.70;;
84431;SDS011;74658;51.736;7.038;2024-02-23T07:39:13;7.10;;;1.60;;
84431;SDS011;74658;51.736;7.038;2024-02-23T07:44:13;7.80;;;1.70;;
84431;SDS011;74658;51.736;7.038;2024-02-23T07:49:13;8.50;;;1.50;;
84431;SDS011;74658;51.736;7.038;2024-02-23T07:54:14;4.70;;;1.60;;
84431;SDS011;74658;51.736;7.038;2024-02-23T07:59:15;7.00;;;1.80;;
84431;SDS011;74658;51.736;7.038;2024-02-23T08:04:15;8.10;;;2.10;;
84431;SDS011;74658;51.736;7.038;2024-02-23T08:09:16;7.80;;;1.60;;
84431;SDS011;74658;51.736;7.038;2024-02-23T08:14:16;5.00;;;1.40;;
84431;SDS011;74658;51.736;7.038;2024-02-23T08:19:17;6.10;;;1.30;;
84431;SDS011;74658;51.736;7.038;2024-02-23T08:24:17;7.30;;;1.50;;
84431;SDS011;74658;51.736;7.038;2024-02-23T08:29:18;9.20;;;1.50;;
84431;SDS011;74658;51.736;7.038;2024-02-23T08:34:19;6.90;;;1.10;;
84431;SDS011;74658;51.736;7.038;2024-02-23T08:39:19;7.30;;;1.50;;
84431;SDS011;74658;51.736;7.038;2024-02-23T08:44:20;7.80;;;1.60;;
84431;SDS011;74658;51.736;7.038;2024-02-23T08:49:20;8.00;;;1.70;;
84431;SDS011;74658;51.736;7.038;2024-02-23T08:54:21;7.50;;;2.00;;
84431;SDS011;74658;51.736;7.038;2024-02-23T08:59:22;6.70;;;1.50;;
84431;SDS011;74658;51.736;7.038;2024-02-23T09:04:22;5.60;;;1.30;;
84431;SDS011;74658;51.736;7.038;2024-02-23T09:09:23;6.10;;;1.30;;
84431;SDS011;74658;51.736;7.038;2024-02-23T09:14:23;6.00;;;1.30;;
84431;SDS011;74658;51.736;7.038;2024-02-23T09:19:24;6.50;;;1.50;;
84431;SDS011;74658;51.736;7.038;2024-02-23T09:24:25;6.10;;;1.50;;
84431;SDS011;74658;51.736;7.038;2024-02-23T09:29:25;7.10;;;1.30;;
84431;SDS011;74658;51.736;7.038;2024-02-23T09:34:26;4.20;;;1.00;;
84431;SDS011;74658;51.736;7.038;2024-02-23T09:39:27;6.50;;;1.40;;
84431;SDS011;74658;51.736;7.038;2024-02-23T09:44:27;4.70;;;1.30;;
84431;SDS011;74658;51.736;7.038;2024-02-23T09:49:28;6.00;;;1.40;;
84431;SDS011;74658;51.736;7.038;2024-02-23T09:54:28;5.30;;;1.40;;
84431;SDS011;74658;51.736;7.038;2024-02-23T09:59:30;6.10;;;1.30;;
84431;SDS011;74658;51.736;7.038;2024-02-23T10:04:30;4.00;;;1.10;;
84431;SDS011;74658;51.736;7.038;2024-02-23T10:09:30;9.20;;;1.80;;
84431;SDS011;74658;51.736;7.038;2024-02-23T10:14:31;7.40;;;1.50;;
84431;SDS011;74658;51.736;7.038;2024-02-23T10:19:31;7.90;;;2.10;;
84431;SDS011;74658;51.736;7.038;2024-02-23T10:24:32;6.40;;;1.40;;
84431;SDS011;74658;51.736;7.038;2024-02-23T10:29:33;3.90;;;1.00;;
84431;SDS011;74658;51.736;7.038;2024-02-23T10:34:33;6.20;;;1.30;;
84431;SDS011;74658;51.736;7.038;2024-02-23T10:39:34;5.80;;;1.30;;
84431;SDS011;74658;51.736;7.038;2024-02-23T10:44:34;5.70;;;1.50;;
84431;SDS011;74658;51.736;7.038;2024-02-23T10:49:35;4.80;;;1.30;;
84431;SDS011;74658;51.736;7.038;2024-02-23T10:54:36;4.20;;;1.20;;
84431;SDS011;74658;51.736;7.038;2024-02-23T10:59:37;6.30;;;1.40;;
84431;SDS011;74658;51.736;7.038;2024-02-23T11:04:37;6.90;;;1.40;;
84431;SDS011;74658;51.736;7.038;2024-02-23T11:09:37;7.20;;;1.30;;
84431;SDS011;74658;51.736;7.038;2024-02-23T11:14:38;6.10;;;1.10;;
84431;SDS011;74658;51.736;7.038;2024-02-23T11:19:39;6.10;;;1.80;;
84431;SDS011;74658;51.736;7.038;2024-02-23T11:24:42;6.70;;;1.40;;
84431;SDS011;74658;51.736;7.038;2024-02-23T11:29:40;4.90;;;1.40;;
84431;SDS011;74658;51.736;7.038;2024-02-23T11:34:41;4.20;;;1.20;;
84431;SDS011;74658;51.736;7.038;2024-02-23T11:39:41;5.40;;;1.10;;
84431;SDS011;74658;51.736;7.038;2024-02-23T11:44:42;5.60;;;1.30;;
84431;SDS011;74658;51.736;7.038;2024-02-23T11:49:42;6.70;;;2.60;;
84431;SDS011;74658;51.736;7.038;2024-02-23T11:54:43;8.20;;;2.10;;
84431;SDS011;74658;51.736;7.038;2024-02-23T11:59:44;5.30;;;1.30;;
84431;SDS011;74658;51.736;7.038;2024-02-23T12:04:44;7.00;;;1.40;;
84431;SDS011;74658;51.736;7.038;2024-02-23T12:09:45;5.80;;;1.50;;
84431;SDS011;74658;51.736;7.038;2024-02-23T12:14:45;5.10;;;1.50;;
84431;SDS011;74658;51.736;7.038;2024-02-23T12:19:46;6.20;;;1.80;;
84431;SDS011;74658;51.736;7.038;2024-02-23T12:24:46;5.50;;;1.30;;
84431;SDS011;74658;51.736;7.038;2024-02-23T12:29:50;6.10;;;1.70;;
84431;SDS011;74658;51.736;7.038;2024-02-23T12:34:48;6.60;;;1.80;;
84431;SDS011;74658;51.736;7.038;2024-02-23T12:39:48;4.90;;;1.70;;
84431;SDS011;74658;51.736;7.038;2024-02-23T12:44:49;5.10;;;1.70;;
84431;SDS011;74658;51.736;7.038;2024-02-23T12:49:49;7.00;;;1.60;;
84431;SDS011;74658;51.736;7.038;2024-02-23T12:54:50;8.40;;;2.10;;
84431;SDS011;74658;51.736;7.038;2024-02-23T12:59:51;8.10;;;1.50;;
84431;SDS011;74658;51.736;7.038;2024-02-23T13:04:51;8.10;;;1.70;;
84431;SDS011;74658;51.736;7.038;2024-02-23T13:09:52;8.50;;;1.90;;
84431;SDS011;74658;51.736;7.038;2024-02-23T13:14:53;8.30;;;2.10;;
84431;SDS011;74658;51.736;7.038;2024-02-23T13:19:53;6.00;;;1.40;;
84431;SDS011;74658;51.736;7.038;2024-02-23T13:24:54;5.80;;;1.40;;
84431;SDS011;74658;51.736;7.038;2024-02-23T13:29:55;7.30;;;2.20;;
84431;SDS011;74658;51.736;7.038;2024-02-23T13:34:55;6.70;;;1.60;;
84431;SDS011;74658;51.736;7.038;2024-02-23T13:39:56;6.60;;;1.40;;
84431;SDS011;74658;51.736;7.038;2024-02-23T13:44:56;7.50;;;1.30;;
84431;SDS011;74658;51.736;7.038;2024-02-23T13:49:57;6.00;;;1.20;;
84431;SDS011;74658;51.736;7.038;2024-02-23T13:54:58;5.80;;;1.40;;
84431;SDS011;74658;51.736;7.038;2024-02-23T13:59:58;5.10;;;1.20;;
84431;SDS011;74658;51.736;7.038;2024-02-23T14:05:00;7.20;;;1.50;;
84431;SDS011;74658;51.736;7.038;2024-02-23T14:09:59;5.60;;;1.40;;
84431;SDS011;74658;51.736;7.038;2024-02-23T14:15:00;5.60;;;1.70;;
84431;SDS011;74658;51.736;7.038;2024-02-23T14:20:01;4.00;;;1.10;;
84431;SDS011;74658;51.736;7.038;2024-02-23T14:25:01;8.10;;;2.00;;
84431;SDS011;74658;51.736;7.038;2024-02-23T14:30:02;5.40;;;1.70;;
84431;SDS011;74658;51.736;7.038;2024-02-23T14:35:02;5.70;;;1.60;;
84431;SDS011;74658;51.736;7.038;2024-02-23T14:40:03;6.10;;;1.40;;
84431;SDS011;74658;51.736;7.038;2024-02-23T14:40:03;6.10;;;1.40;;
84431;SDS011;74658;51.736;7.038;2024-02-23T14:45:04;5.70;;;1.50;;
84431;SDS011;74658;51.736;7.038;2024-02-23T14:50:05;6.10;;;1.50;;
84431;SDS011;74658;51.736;7.038;2024-02-23T14:55:05;5.70;;;1.80;;
84431;SDS011;74658;51.736;7.038;2024-02-23T15:00:07;8.30;;;1.90;;
84431;SDS011;74658;51.736;7.038;2024-02-23T15:05:06;7.50;;;2.30;;
84431;SDS011;74658;51.736;7.038;2024-02-23T15:10:07;6.70;;;1.80;;
84431;SDS011;74658;51.736;7.038;2024-02-23T15:15:07;5.20;;;2.10;;
84431;SDS011;74658;51.736;7.038;2024-02-23T15:20:08;8.10;;;2.00;;
84431;SDS011;74658;51.736;7.038;2024-02-23T15:25:08;5.80;;;1.90;;
84431;SDS011;74658;51.736;7.038;2024-02-23T15:30:09;7.20;;;1.60;;
84431;SDS011;74658;51.736;7.038;2024-02-23T15:35:09;4.40;;;1.50;;
84431;SDS011;74658;51.736;7.038;2024-02-23T15:40:10;6.00;;;1.70;;
84431;SDS011;74658;51.736;7.038;2024-02-23T15:45:11;6.80;;;1.80;;
84431;SDS011;74658;51.736;7.038;2024-02-23T15:50:11;6.90;;;1.30;;
84431;SDS011;74658;51.736;7.038;2024-02-23T15:55:12;6.00;;;1.40;;
84431;SDS011;74658;51.736;7.038;2024-02-23T16:00:13;7.20;;;1.50;;
84431;SDS011;74658;51.736;7.038;2024-02-23T16:05:13;6.40;;;1.80;;
84431;SDS011;74658;51.736;7.038;2024-02-23T16:10:14;5.50;;;2.00;;
84431;SDS011;74658;51.736;7.038;2024-02-23T16:15:15;4.70;;;1.90;;
84431;SDS011;74658;51.736;7.038;2024-02-23T16:20:15;4.40;;;1.90;;
84431;SDS011;74658;51.736;7.038;2024-02-23T16:25:16;4.30;;;1.60;;
84431;SDS011;74658;51.736;7.038;2024-02-23T16:30:16;6.10;;;1.80;;
84431;SDS011;74658;51.736;7.038;2024-02-23T16:35:17;6.60;;;1.50;;
84431;SDS011;74658;51.736;7.038;2024-02-23T16:40:18;6.70;;;2.50;;
84431;SDS011;74658;51.736;7.038;2024-02-23T16:45:18;4.30;;;1.50;;
84431;SDS011;74658;51.736;7.038;2024-02-23T16:50:19;4.60;;;1.30;;
84431;SDS011;74658;51.736;7.038;2024-02-23T16:55:19;4.30;;;1.30;;
84431;SDS011;74658;51.736;7.038;2024-02-23T17:00:20;6.00;;;1.50;;
84431;SDS011;74658;51.736;7.038;2024-02-23T17:05:20;3.70;;;1.30;;
84431;SDS011;74658;51.736;7.038;2024-02-23T17:10:21;4.20;;;1.10;;
84431;SDS011;74658;51.736;7.038;2024-02-23T17:15:22;5.50;;;1.80;;
84431;SDS011;74658;51.736;7.038;2024-02-23T17:20:22;4.70;;;1.60;;
84431;SDS011;74658;51.736;7.038;2024-02-23T17:25:23;5.20;;;1.40;;
84431;SDS011;74658;51.736;7.038;2024-02-23T17:30:23;5.90;;;2.50;;
84431;SDS011;74658;51.736;7.038;2024-02-23T17:35:24;6.20;;;1.90;;
84431;SDS011;74658;51.736;7.038;2024-02-23T17:40:25;8.10;;;3.20;;
84431;SDS011;74658;51.736;7.038;2024-02-23T17:45:25;9.90;;;3.70;;
84431;SDS011;74658;51.736;7.038;2024-02-23T17:50:26;10.10;;;3.80;;
84431;SDS011;74658;51.736;7.038;2024-02-23T17:55:28;9.20;;;4.40;;
84431;SDS011;74658;51.736;7.038;2024-02-23T18:00:27;12.80;;;5.00;;
84431;SDS011;74658;51.736;7.038;2024-02-23T18:05:28;9.10;;;3.60;;
84431;SDS011;74658;51.736;7.038;2024-02-23T18:10:28;7.20;;;2.00;;
84431;SDS011;74658;51.736;7.038;2024-02-23T18:15:29;6.60;;;2.00;;
84431;SDS011;74658;51.736;7.038;2024-02-23T18:20:30;6.60;;;2.50;;
84431;SDS011;74658;51.736;7.038;2024-02-23T18:25:30;7.60;;;2.30;;
84431;SDS011;74658;51.736;7.038;2024-02-23T18:30:31;7.10;;;2.20;;
84431;SDS011;74658;51.736;7.038;2024-02-23T18:35:32;11.00;;;7.70;;
84431;SDS011;74658;51.736;7.038;2024-02-23T18:40:32;27.80;;;18.60;;
84431;SDS011;74658;51.736;7.038;2024-02-23T18:45:34;11.90;;;7.40;;
84431;SDS011;74658;51.736;7.038;2024-02-23T18:50:34;10.10;;;5.00;;
84431;SDS011;74658;51.736;7.038;2024-02-23T18:55:35;10.00;;;4.40;;
84431;SDS011;74658;51.736;7.038;2024-02-23T19:00:36;9.70;;;3.50;;
84431;SDS011;74658;51.736;7.038;2024-02-23T19:05:36;7.10;;;2.60;;
84431;SDS011;74658;51.736;7.038;2024-02-23T19:10:37;11.00;;;3.90;;
84431;SDS011;74658;51.736;7.038;2024-02-23T19:15:37;11.60;;;4.40;;
84431;SDS011;74658;51.736;7.038;2024-02-23T19:20:38;11.80;;;5.20;;
84431;SDS011;74658;51.736;7.038;2024-02-23T19:25:39;9.70;;;3.90;;
84431;SDS011;74658;51.736;7.038;2024-02-23T19:30:39;8.60;;;3.60;;
84431;SDS011;74658;51.736;7.038;2024-02-23T19:35:40;12.30;;;5.60;;
84431;SDS011;74658;51.736;7.038;2024-02-23T19:40:40;12.70;;;5.30;;
84431;SDS011;74658;51.736;7.038;2024-02-23T19:45:41;10.40;;;5.00;;
84431;SDS011;74658;51.736;7.038;2024-02-23T19:50:41;15.20;;;5.80;;
84431;SDS011;74658;51.736;7.038;2024-02-23T19:55:42;13.20;;;5.40;;
84431;SDS011;74658;51.736;7.038;2024-02-23T20:00:43;11.90;;;5.00;;
84431;SDS011;74658;51.736;7.038;2024-02-23T20:05:43;12.40;;;4.50;;
84431;SDS011;74658;51.736;7.038;2024-02-23T20:10:44;8.90;;;2.90;;
84431;SDS011;74658;51.736;7.038;2024-02-23T20:15:45;8.40;;;3.40;;
84431;SDS011;74658;51.736;7.038;2024-02-23T20:20:45;8.50;;;2.90;;
84431;SDS011;74658;51.736;7.038;2024-02-23T20:25:46;9.10;;;2.50;;
84431;SDS011;74658;51.736;7.038;2024-02-23T20:30:47;7.40;;;2.50;;
84431;SDS011;74658;51.736;7.038;2024-02-23T20:35:47;12.30;;;4.70;;
84431;SDS011;74658;51.736;7.038;2024-02-23T20:40:48;7.10;;;3.60;;
84431;SDS011;74658;51.736;7.038;2024-02-23T20:45:48;8.50;;;2.50;;
84431;SDS011;74658;51.736;7.038;2024-02-23T20:50:49;8.50;;;2.50;;
84431;SDS011;74658;51.736;7.038;2024-02-23T20:55:50;8.00;;;2.60;;
84431;SDS011;74658;51.736;7.038;2024-02-23T21:00:50;8.10;;;3.00;;
84431;SDS011;74658;51.736;7.038;2024-02-23T21:05:51;8.70;;;2.50;;
84431;SDS011;74658;51.736;7.038;2024-02-23T21:10:51;6.90;;;2.30;;
84431;SDS011;74658;51.736;7.038;2024-02-23T21:15:52;6.10;;;2.00;;
84431;SDS011;74658;51.736;7.038;2024-02-23T21:20:53;5.60;;;1.70;;
84431;SDS011;74658;51.736;7.038;2024-02-23T21:25:56;6.20;;;1.80;;
84431;SDS011;74658;51.736;7.038;2024-02-23T21:30:54;5.60;;;1.80;;
84431;SDS011;74658;51.736;7.038;2024-02-23T21:35:54;6.00;;;1.50;;
84431;SDS011;74658;51.736;7.038;2024-02-23T21:40:55;5.10;;;1.60;;
84431;SDS011;74658;51.736;7.038;2024-02-23T21:45:55;4.00;;;1.60;;
84431;SDS011;74658;51.736;7.038;2024-02-23T21:50:57;5.50;;;1.80;;
84431;SDS011;74658;51.736;7.038;2024-02-23T21:55:57;4.50;;;1.70;;
84431;SDS011;74658;51.736;7.038;2024-02-23T22:00:57;5.90;;;2.00;;
84431;SDS011;74658;51.736;7.038;2024-02-23T22:05:58;5.10;;;1.60;;
84431;SDS011;74658;51.736;7.038;2024-02-23T22:10:59;6.50;;;1.80;;
84431;SDS011;74658;51.736;7.038;2024-02-23T22:15:59;6.30;;;1.80;;
84431;SDS011;74658;51.736;7.038;2024-02-23T22:21:00;5.20;;;1.80;;
84431;SDS011;74658;51.736;7.038;2024-02-23T22:26:00;5.20;;;1.60;;
84431;SDS011;74658;51.736;7.038;2024-02-23T22:31:01;5.10;;;1.60;;
84431;SDS011;74658;51.736;7.038;2024-02-23T22:36:02;6.60;;;2.10;;
84431;SDS011;74658;51.736;7.038;2024-02-23T22:41:02;5.30;;;1.80;;
84431;SDS011;74658;51.736;7.038;2024-02-23T22:46:03;6.20;;;2.30;;
84431;SDS011;74658;51.736;7.038;2024-02-23T22:51:04;6.40;;;2.10;;
84431;SDS011;74658;51.736;7.038;2024-02-23T22:56:04;6.00;;;2.30;;
84431;SDS011;74658;51.736;7.038;2024-02-23T23:01:05;5.00;;;1.80;;
84431;SDS011;74658;51.736;7.038;2024-02-23T23:06:05;7.30;;;2.40;;
84431;SDS011;74658;51.736;7.038;2024-02-23T23:11:06;6.30;;;1.90;;
84431;SDS011;74658;51.736;7.038;2024-02-23T23:16:06;5.30;;;2.10;;
84431;SDS011;74658;51.736;7.038;2024-02-23T23:21:07;5.40;;;1.90;;
84431;SDS011;74658;51.736;7.038;2024-02-23T23:26:07;10.00;;;7.10;;
84431;SDS011;74658;51.736;7.038;2024-02-23T23:31:08;6.50;;;2.10;;
84431;SDS011;74658;51.736;7.038;2024-02-23T23:36:09;5.90;;;2.70;;
84431;SDS011;74658;51.736;7.038;2024-02-23T23:41:09;5.50;;;2.00;;
84431;SDS011;74658;51.736;7.038;2024-02-23T23:46:10;5.70;;;2.10;;
84431;SDS011;74658;51.736;7.038;2024-02-23T23:51:11;5.80;;;2.10;;
84431;SDS011;74658;51.736;7.038;2024-02-23T23:56:14;6.00;;;2.10;;
